Time;durP1;ratioP1;P1;durP2;ratioP2;P2;SDS_P1;SDS_P2;PMS_P1;PMS_P2;Temp;Humidity;BMP_temperature;BMP_pressure;BME280_temperature;BME280_humidity;BME280_pressure;Samples;Min_cycle;Max_cycle;Signal;HPM_P1;HPM_P2
2023/05/28 00:01:11;;;;;;;20.65;4.78;;;14.40;99.90;;;;;;5014447;28;20108;-70
2023/05/28 00:03:37;;;;;;;12.95;4.03;;;14.40;99.90;;;;;;5013299;28;20482;-70
2023/05/28 00:06:03;;;;;;;13.90;4.72;;;14.40;99.90;;;;;;5014391;28;20045;-70
2023/05/28 00:08:29;;;;;;;14.07;4.57;;;14.30;99.90;;;;;;5012880;28;20109;-70
2023/05/28 00:10:59;;;;;;;24.85;4.22;;;14.40;99.90;;;;;;5014173;28;20066;-70
2023/05/28 00:13:29;;;;;;;17.50;5.20;;;14.30;99.90;;;;;;5013558;28;20534;-70
2023/05/28 00:15:55;;;;;;;18.60;5.20;;;14.20;99.90;;;;;;5014110;28;20033;-70
2023/05/28 00:18:21;;;;;;;26.80;4.72;;;14.20;99.90;;;;;;5012568;28;20375;-70
2023/05/28 00:20:48;;;;;;;14.68;4.03;;;14.20;99.90;;;;;;5012836;28;20029;-70
2023/05/28 00:23:14;;;;;;;20.33;4.40;;;14.20;99.90;;;;;;5013433;28;20030;-70
2023/05/28 00:25:40;;;;;;;14.93;4.68;;;14.20;99.90;;;;;;5013776;28;20040;-71
2023/05/28 00:28:05;;;;;;;15.95;5.28;;;14.20;99.90;;;;;;5028124;28;20104;-71
2023/05/28 00:30:31;;;;;;;19.52;5.65;;;14.10;99.90;;;;;;4994335;28;20037;-71
2023/05/28 00:32:57;;;;;;;11.93;4.15;;;14.10;99.90;;;;;;5002584;28;20101;-71
2023/05/28 00:35:22;;;;;;;13.45;4.05;;;14.10;99.90;;;;;;5012896;28;20084;-71
2023/05/28 00:37:48;;;;;;;12.60;4.53;;;14.10;99.90;;;;;;5013774;28;20482;-70
2023/05/28 00:40:17;;;;;;;11.05;4.53;;;14.00;99.90;;;;;;5012360;28;20529;-70
2023/05/28 00:42:44;;;;;;;13.82;4.80;;;14.00;99.90;;;;;;5012307;28;20041;-70
2023/05/28 00:45:11;;;;;;;17.70;4.25;;;14.00;99.90;;;;;;5013895;28;20071;-71
2023/05/28 00:47:40;;;;;;;22.37;5.50;;;14.00;99.90;;;;;;5012614;28;20156;-70
2023/05/28 00:50:08;;;;;;;19.85;4.45;;;14.00;99.90;;;;;;5013019;28;20288;-70
2023/05/28 00:52:35;;;;;;;20.13;5.25;;;14.00;99.90;;;;;;5013573;28;20028;-69
2023/05/28 00:55:01;;;;;;;14.95;4.82;;;13.90;99.90;;;;;;5012329;28;20017;-70
2023/05/28 00:57:27;;;;;;;13.60;4.50;;;13.90;99.90;;;;;;5012092;28;20038;-70
2023/05/28 00:59:57;;;;;;;18.40;4.68;;;13.90;99.90;;;;;;5012801;28;20494;-70
2023/05/28 01:02:23;;;;;;;17.60;4.95;;;13.80;99.90;;;;;;5011792;28;20021;-70
2023/05/28 01:04:50;;;;;;;15.18;4.93;;;13.80;99.90;;;;;;5012328;28;20030;-70
2023/05/28 01:07:16;;;;;;;15.00;4.50;;;13.80;99.90;;;;;;5010288;28;20014;-70
2023/05/28 01:09:42;;;;;;;26.00;4.80;;;13.80;99.90;;;;;;5013225;28;20036;-71
2023/05/28 01:12:09;;;;;;;17.00;5.55;;;13.70;99.90;;;;;;5011867;28;20430;-70
2023/05/28 01:14:37;;;;;;;20.73;5.22;;;13.80;99.90;;;;;;5012332;28;20080;-70
2023/05/28 01:17:05;;;;;;;16.55;4.88;;;13.80;99.90;;;;;;5011240;28;20034;-70
2023/05/28 01:19:31;;;;;;;17.05;4.72;;;13.70;99.90;;;;;;5012363;28;20057;-69
2023/05/28 01:22:03;;;;;;;20.95;4.63;;;13.60;99.90;;;;;;5011876;28;20018;-70
2023/05/28 01:24:34;;;;;;;11.82;4.68;;;13.60;99.90;;;;;;5013458;28;20022;-69
2023/05/28 01:27:00;;;;;;;18.05;6.00;;;13.60;99.90;;;;;;5013219;28;20394;-70
2023/05/28 01:29:26;;;;;;;21.17;5.00;;;13.50;99.90;;;;;;5012066;28;20117;-70
2023/05/28 01:31:53;;;;;;;14.98;5.28;;;13.50;99.90;;;;;;5012456;28;20493;-69
2023/05/28 01:34:19;;;;;;;27.10;4.55;;;13.40;99.90;;;;;;5027325;28;20061;-69
2023/05/28 01:36:57;;;;;;;20.02;5.47;;;13.40;99.90;;;;;;5012730;28;20398;-69
2023/05/28 01:39:27;;;;;;;21.25;6.35;;;13.30;99.90;;;;;;5015306;28;20034;-70
2023/05/28 01:41:53;;;;;;;19.00;5.47;;;13.30;99.90;;;;;;5016020;28;20025;-69
2023/05/28 01:44:19;;;;;;;25.05;5.38;;;13.30;99.90;;;;;;5009805;28;20026;-69
2023/05/28 01:46:52;;;;;;;19.95;4.65;;;13.30;99.90;;;;;;4997368;28;20125;-69
2023/05/28 01:49:18;;;;;;;17.33;5.18;;;13.20;99.90;;;;;;5007131;28;20105;-69
2023/05/28 01:51:44;;;;;;;17.15;4.88;;;13.20;99.90;;;;;;5016865;28;20081;-69
2023/05/28 01:54:09;;;;;;;17.20;4.43;;;13.20;99.90;;;;;;5016242;28;20113;-69
2023/05/28 01:56:35;;;;;;;17.38;5.00;;;13.10;99.90;;;;;;5014409;28;20030;-70
2023/05/28 01:59:02;;;;;;;19.38;5.55;;;13.10;99.90;;;;;;5016122;28;20104;-70
2023/05/28 02:01:33;;;;;;;22.17;6.03;;;13.10;99.90;;;;;;5016739;28;20034;-70
2023/05/28 02:04:00;;;;;;;13.68;5.18;;;13.10;99.90;;;;;;5015168;28;20018;-70
2023/05/28 02:06:29;;;;;;;17.57;5.30;;;13.10;99.90;;;;;;5014831;28;20029;-70
2023/05/28 02:08:55;;;;;;;18.13;5.43;;;13.10;99.90;;;;;;5015023;28;20124;-71
2023/05/28 02:11:21;;;;;;;16.02;5.45;;;13.10;99.90;;;;;;5015872;28;20113;-70
2023/05/28 02:13:48;;;;;;;23.35;5.65;;;13.10;99.90;;;;;;5030792;28;20045;-70
2023/05/28 02:16:17;;;;;;;12.43;4.00;;;13.10;99.90;;;;;;5016380;28;20030;-70
2023/05/28 02:18:44;;;;;;;15.52;5.63;;;13.20;99.90;;;;;;5014878;28;20072;-71
2023/05/28 02:21:11;;;;;;;18.50;5.20;;;13.20;99.90;;;;;;5031882;28;20018;-70
2023/05/28 02:23:40;;;;;;;23.95;5.80;;;13.20;99.90;;;;;;5015746;28;20022;-70
2023/05/28 02:26:06;;;;;;;20.30;5.25;;;13.20;99.90;;;;;;5011617;28;20026;-70
2023/05/28 02:28:31;;;;;;;19.88;5.97;;;13.20;99.90;;;;;;5015005;28;20144;-71
2023/05/28 02:30:57;;;;;;;18.67;5.00;;;13.20;99.90;;;;;;5015136;28;20121;-70
2023/05/28 02:33:23;;;;;;;26.83;6.18;;;13.20;99.90;;;;;;5016120;28;20037;-70
2023/05/28 02:35:48;;;;;;;17.38;5.38;;;13.20;99.90;;;;;;5029755;28;20394;-70
2023/05/28 02:38:14;;;;;;;18.33;5.45;;;13.10;99.90;;;;;;5016026;28;20475;-70
2023/05/28 02:40:43;;;;;;;25.52;5.57;;;13.10;99.90;;;;;;5016202;28;20036;-70
2023/05/28 02:43:09;;;;;;;22.13;5.47;;;13.10;99.90;;;;;;5015994;28;20113;-70
2023/05/28 02:45:34;;;;;;;13.23;5.38;;;13.10;99.90;;;;;;4999809;28;20113;-69
2023/05/28 02:48:00;;;;;;;25.73;6.57;;;13.10;99.90;;;;;;4996343;28;20030;-70
2023/05/28 02:50:26;;;;;;;18.10;5.75;;;13.10;99.90;;;;;;5012002;28;20034;-70
2023/05/28 02:52:51;;;;;;;11.88;5.63;;;13.10;99.90;;;;;;5030489;28;20022;-69
2023/05/28 02:55:17;;;;;;;16.35;5.20;;;13.10;99.90;;;;;;5015178;28;20426;-70
2023/05/28 02:57:43;;;;;;;14.25;5.40;;;13.10;99.90;;;;;;5015028;28;20049;-70
2023/05/28 03:00:09;;;;;;;8.80;5.05;;;13.00;99.90;;;;;;5015736;28;20037;-69
2023/05/28 03:02:35;;;;;;;19.83;5.63;;;13.00;99.90;;;;;;5015666;28;20036;-69
2023/05/28 03:05:02;;;;;;;14.77;4.93;;;13.00;99.90;;;;;;5013911;28;20018;-70
2023/05/28 03:07:29;;;;;;;25.88;5.80;;;13.00;99.90;;;;;;5014950;28;20026;-69
2023/05/28 03:09:56;;;;;;;17.40;5.43;;;12.90;99.90;;;;;;5015008;28;20030;-70
2023/05/28 03:12:21;;;;;;;25.13;6.07;;;12.80;99.90;;;;;;5015481;28;20045;-71
2023/05/28 03:14:47;;;;;;;20.33;5.80;;;12.80;99.90;;;;;;5014877;28;20026;-69
2023/05/28 03:17:12;;;;;;;10.05;4.95;;;12.70;99.90;;;;;;5015297;28;20029;-70
2023/05/28 03:19:38;;;;;;;16.45;5.22;;;12.70;99.90;;;;;;5013385;28;20030;-70
2023/05/28 03:22:04;;;;;;;19.35;5.65;;;12.70;99.90;;;;;;5015241;28;20026;-70
2023/05/28 03:24:30;;;;;;;20.10;5.70;;;12.70;99.90;;;;;;5014868;28;20113;-70
2023/05/28 03:26:58;;;;;;;13.48;5.53;;;12.70;99.90;;;;;;5015130;28;20038;-71
2023/05/28 03:29:23;;;;;;;14.90;4.38;;;12.70;99.90;;;;;;5012469;28;20070;-71
2023/05/28 03:31:49;;;;;;;15.57;5.03;;;12.70;99.90;;;;;;5014232;28;20407;-72
2023/05/28 03:34:15;;;;;;;17.13;5.20;;;12.80;99.90;;;;;;5030236;28;20034;-70
2023/05/28 03:36:40;;;;;;;13.65;4.68;;;12.70;99.90;;;;;;5013683;28;20133;-71
2023/05/28 03:39:10;;;;;;;23.27;5.50;;;12.70;99.90;;;;;;5014888;28;20025;-70
2023/05/28 03:41:36;;;;;;;15.82;4.97;;;12.60;99.90;;;;;;4996593;28;20501;-71
2023/05/28 03:44:03;;;;;;;14.57;5.60;;;12.60;99.90;;;;;;5014198;28;20033;-70
2023/05/28 03:46:29;;;;;;;17.10;6.28;;;12.50;99.90;;;;;;5014725;28;20095;-69
2023/05/28 03:48:55;;;;;;;25.42;5.30;;;12.50;99.90;;;;;;5014705;28;20474;-69
2023/05/28 03:51:23;;;;;;;25.23;5.00;;;12.50;99.90;;;;;;5012595;28;20033;-69
2023/05/28 03:53:49;;;;;;;18.52;4.75;;;12.40;99.90;;;;;;5013841;28;20030;-69
2023/05/28 03:56:15;;;;;;;19.38;5.28;;;12.50;99.90;;;;;;5013706;28;20030;-69
2023/05/28 03:58:41;;;;;;;25.90;5.97;;;12.50;99.90;;;;;;5013927;28;20033;-69
2023/05/28 04:01:07;;;;;;;21.63;5.50;;;12.50;99.90;;;;;;5013035;28;20112;-69
2023/05/28 04:03:33;;;;;;;11.60;4.97;;;12.50;99.90;;;;;;5028104;28;20037;-70
2023/05/28 04:06:00;;;;;;;17.00;5.72;;;12.60;99.90;;;;;;5028162;28;20461;-70
2023/05/28 04:08:26;;;;;;;18.17;5.45;;;12.60;99.90;;;;;;5029015;28;20080;-69
2023/05/28 04:10:51;;;;;;;17.15;4.82;;;12.60;99.90;;;;;;5014291;28;20029;-69
2023/05/28 04:13:17;;;;;;;20.33;5.40;;;12.60;99.90;;;;;;5013466;28;20033;-69
2023/05/28 04:15:43;;;;;;;17.35;4.88;;;12.50;99.90;;;;;;5014084;28;20053;-69
2023/05/28 04:18:08;;;;;;;15.55;4.85;;;12.50;99.90;;;;;;5013659;28;20040;-68
2023/05/28 04:20:35;;;;;;;9.80;5.00;;;12.60;99.90;;;;;;5011552;28;20052;-68
2023/05/28 04:23:01;;;;;;;19.20;5.20;;;12.60;99.90;;;;;;5011605;28;20104;-69
2023/05/28 04:25:28;;;;;;;11.45;4.82;;;12.60;99.90;;;;;;5013507;28;20144;-69
2023/05/28 04:27:58;;;;;;;11.57;5.68;;;12.60;99.90;;;;;;5012586;28;20037;-69
2023/05/28 04:30:23;;;;;;;16.08;4.60;;;12.60;99.90;;;;;;5014003;28;20097;-69
2023/05/28 04:32:52;;;;;;;14.52;4.57;;;12.50;99.90;;;;;;5013930;28;20056;-70
2023/05/28 04:35:19;;;;;;;20.95;6.00;;;12.50;99.90;;;;;;5013917;28;20061;-70
2023/05/28 04:37:45;;;;;;;11.55;4.35;;;12.50;99.90;;;;;;5011786;28;20050;-71
2023/05/28 04:40:14;;;;;;;17.70;4.88;;;12.40;99.90;;;;;;5013822;28;20113;-70
2023/05/28 04:42:40;;;;;;;11.93;5.45;;;12.40;99.90;;;;;;5012666;28;20064;-71
2023/05/28 04:45:10;;;;;;;17.35;4.82;;;12.40;99.90;;;;;;5008790;28;20029;-70
2023/05/28 04:47:38;;;;;;;11.48;4.90;;;12.40;99.90;;;;;;4994077;28;20034;-70
2023/05/28 04:50:06;;;;;;;16.30;5.30;;;12.40;99.90;;;;;;4994060;28;20110;-71
2023/05/28 04:52:35;;;;;;;22.90;5.20;;;12.40;99.90;;;;;;5006985;28;20041;-70
2023/05/28 04:55:04;;;;;;;24.52;4.82;;;12.40;99.90;;;;;;5009602;28;20662;-70
2023/05/28 04:57:30;;;;;;;15.68;5.25;;;12.40;99.90;;;;;;5013413;28;20030;-70
2023/05/28 04:59:56;;;;;;;18.40;4.70;;;12.40;99.90;;;;;;5011995;28;20109;-70
2023/05/28 05:02:21;;;;;;;12.75;4.95;;;12.40;99.90;;;;;;5023015;28;20413;-69
2023/05/28 05:04:47;;;;;;;16.13;5.75;;;12.40;99.90;;;;;;5024790;28;20486;-70
2023/05/28 05:07:14;;;;;;;16.33;5.13;;;12.40;99.90;;;;;;5012838;28;20099;-70
2023/05/28 05:09:40;;;;;;;18.48;4.97;;;12.50;99.90;;;;;;5013397;28;20048;-69
2023/05/28 05:12:07;;;;;;;18.08;5.45;;;12.50;99.90;;;;;;5012850;28;20029;-69
2023/05/28 05:14:33;;;;;;;14.83;4.57;;;12.50;99.90;;;;;;5012032;28;20172;-68
2023/05/28 05:16:58;;;;;;;16.33;4.57;;;12.60;99.90;;;;;;5013235;28;20391;-70
2023/05/28 05:19:25;;;;;;;14.85;5.00;;;12.60;99.90;;;;;;5013616;28;20025;-70
2023/05/28 05:21:51;;;;;;;14.63;5.20;;;12.70;99.90;;;;;;5013234;28;20080;-69
2023/05/28 05:24:16;;;;;;;21.98;5.47;;;12.70;99.90;;;;;;5012147;28;20061;-69
2023/05/28 05:26:42;;;;;;;9.15;4.25;;;12.90;99.90;;;;;;5013134;28;20052;-69
2023/05/28 05:29:08;;;;;;;14.52;5.28;;;12.90;99.90;;;;;;5012273;28;20368;-68
2023/05/28 05:31:33;;;;;;;19.60;5.57;;;13.10;99.90;;;;;;5012989;28;20107;-69
2023/05/28 05:33:59;;;;;;;13.90;4.97;;;13.20;99.90;;;;;;5011773;28;20482;-71
2023/05/28 05:36:26;;;;;;;11.18;4.60;;;13.30;99.90;;;;;;5032839;28;20081;-68
2023/05/28 05:38:51;;;;;;;17.33;4.93;;;13.30;99.90;;;;;;5013301;28;20026;-71
2023/05/28 05:41:17;;;;;;;19.15;5.63;;;13.30;99.90;;;;;;5028169;28;20022;-69
2023/05/28 05:43:43;;;;;;;18.23;5.43;;;13.30;99.90;;;;;;5012357;28;20044;-69
2023/05/28 05:46:08;;;;;;;15.32;5.78;;;13.40;99.90;;;;;;5012994;28;20544;-69
2023/05/28 05:48:34;;;;;;;22.40;4.97;;;13.40;99.90;;;;;;5011879;28;20034;-69
2023/05/28 05:51:02;;;;;;;14.75;4.40;;;13.50;99.90;;;;;;5010977;28;20403;-70
2023/05/28 05:53:28;;;;;;;21.42;4.95;;;13.70;99.90;;;;;;5011477;28;20029;-70
2023/05/28 05:55:54;;;;;;;19.40;4.35;;;13.80;99.90;;;;;;5011951;28;20386;-71
2023/05/28 05:58:19;;;;;;;10.80;4.88;;;13.90;99.90;;;;;;5012306;28;20026;-70
2023/05/28 06:00:47;;;;;;;9.48;5.35;;;14.00;99.90;;;;;;4993215;28;20414;-69
2023/05/28 06:03:13;;;;;;;14.30;5.13;;;14.10;99.90;;;;;;4994084;28;20027;-69
2023/05/28 06:05:39;;;;;;;25.42;4.88;;;14.40;99.90;;;;;;5025449;28;20049;-70
2023/05/28 06:08:06;;;;;;;12.55;4.20;;;14.70;99.90;;;;;;5012162;28;20026;-70
2023/05/28 06:10:32;;;;;;;10.45;4.43;;;15.00;99.90;;;;;;5012676;28;20018;-69
2023/05/28 06:13:01;;;;;;;21.25;4.68;;;15.00;99.90;;;;;;5011093;28;20101;-70
2023/05/28 06:15:28;;;;;;;14.68;4.90;;;14.90;99.90;;;;;;5010335;28;20026;-69
2023/05/28 06:17:55;;;;;;;21.17;4.85;;;14.80;99.90;;;;;;5012615;28;20037;-70
2023/05/28 06:20:21;;;;;;;12.10;4.80;;;14.90;99.90;;;;;;5007504;28;20026;-69
2023/05/28 06:22:47;;;;;;;16.33;5.35;;;15.30;99.90;;;;;;4992871;28;20341;-69
2023/05/28 06:25:14;;;;;;;16.55;4.60;;;15.40;99.90;;;;;;5007790;28;20026;-70
2023/05/28 06:27:40;;;;;;;11.65;4.75;;;15.30;99.90;;;;;;5016513;28;20034;-70
2023/05/28 06:30:06;;;;;;;13.75;4.63;;;15.20;99.90;;;;;;5016263;28;20076;-69
2023/05/28 06:32:32;;;;;;;18.70;5.50;;;15.10;99.90;;;;;;5015276;28;20394;-69
2023/05/28 06:34:57;;;;;;;10.05;4.32;;;15.10;99.90;;;;;;5015103;28;20033;-70
2023/05/28 06:37:23;;;;;;;16.50;5.13;;;15.10;99.90;;;;;;5015257;28;20522;-69
2023/05/28 06:39:48;;;;;;;16.08;5.43;;;15.10;99.90;;;;;;5016094;28;20478;-70
2023/05/28 06:42:14;;;;;;;15.52;4.32;;;15.20;99.90;;;;;;5017686;28;20077;-69
2023/05/28 06:44:40;;;;;;;11.65;4.22;;;15.30;99.90;;;;;;5014418;28;20018;-70
2023/05/28 06:47:06;;;;;;;10.23;3.58;;;15.40;99.90;;;;;;5014972;28;20069;-70
2023/05/28 06:49:31;;;;;;;15.60;4.78;;;15.70;99.90;;;;;;5014947;28;20116;-70
2023/05/28 06:51:58;;;;;;;10.20;4.57;;;16.20;99.90;;;;;;5011558;28;20035;-70
2023/05/28 06:54:24;;;;;;;12.77;3.78;;;16.80;99.90;;;;;;5014223;28;20033;-70
2023/05/28 06:56:49;;;;;;;25.52;5.40;;;17.40;99.90;;;;;;5014582;28;20496;-70
2023/05/28 06:59:15;;;;;;;20.13;4.32;;;18.50;99.90;;;;;;5012788;28;20030;-70
2023/05/28 07:01:41;;;;;;;6.22;3.22;;;19.70;99.90;;;;;;5013587;28;20036;-70
2023/05/28 07:04:07;;;;;;;13.40;4.10;;;20.80;99.90;;;;;;5015633;28;20022;-71
2023/05/28 07:06:33;;;;;;;14.82;4.18;;;22.00;99.90;;;;;;5014484;28;20044;-70
2023/05/28 07:08:59;;;;;;;10.57;4.33;;;22.50;99.90;;;;;;5014265;28;20046;-70
2023/05/28 07:11:26;;;;;;;12.02;4.75;;;22.60;99.90;;;;;;5010509;28;20342;-69
2023/05/28 07:13:54;;;;;;;10.60;4.03;;;22.30;99.90;;;;;;5014755;28;20030;-69
2023/05/28 07:16:20;;;;;;;12.75;4.28;;;22.20;99.90;;;;;;5012738;28;20160;-70
2023/05/28 07:18:46;;;;;;;12.73;4.82;;;21.90;99.90;;;;;;5028250;28;20026;-70
2023/05/28 07:21:12;;;;;;;15.60;5.05;;;21.80;99.90;;;;;;5046468;28;20109;-69
2023/05/28 07:23:37;;;;;;;13.18;5.57;;;21.80;99.90;;;;;;5015356;28;20037;-69
2023/05/28 07:26:03;;;;;;;14.15;4.30;;;21.60;99.90;;;;;;5030392;28;20041;-69
2023/05/28 07:28:29;;;;;;;17.55;4.65;;;21.40;99.90;;;;;;5010131;28;20368;-70
2023/05/28 07:30:55;;;;;;;12.68;4.28;;;20.90;99.90;;;;;;4995496;28;20065;-70
2023/05/28 07:33:21;;;;;;;17.35;4.57;;;20.70;99.90;;;;;;5007506;28;20030;-70
2023/05/28 07:35:46;;;;;;;16.35;4.18;;;20.60;99.90;;;;;;5027040;28;20025;-69
2023/05/28 07:38:14;;;;;;;10.35;3.78;;;20.50;99.90;;;;;;5030115;28;20085;-70
2023/05/28 07:40:40;;;;;;;;;;;20.40;99.90;;;;;;5015346;28;20030;-69
2023/05/28 07:43:05;;;;;;;16.45;3.78;;;19.90;99.90;;;;;;5014878;28;19995;-70
2023/05/28 07:45:31;;;;;;;11.45;3.55;;;19.50;99.90;;;;;;5029163;28;20395;-70
2023/05/28 07:47:57;;;;;;;13.70;4.15;;;19.30;99.90;;;;;;5016642;28;20084;-72
2023/05/28 07:50:22;;;;;;;8.20;3.90;;;19.20;99.90;;;;;;5028742;28;20533;-70
2023/05/28 07:52:48;;;;;;;11.43;4.05;;;19.40;99.90;;;;;;5012047;28;20026;-70
2023/05/28 07:55:14;;;;;;;9.77;3.63;;;19.40;99.90;;;;;;5014589;28;20116;-70
2023/05/28 07:57:39;;;;;;;12.65;4.10;;;19.60;99.90;;;;;;5013547;28;20034;-70
2023/05/28 08:00:06;;;;;;;21.05;4.50;;;19.50;99.90;;;;;;5014650;28;20026;-71
2023/05/28 08:02:33;;;;;;;12.77;3.58;;;19.50;99.90;;;;;;5011598;28;20061;-71
2023/05/28 08:05:00;;;;;;;13.88;3.97;;;19.40;99.90;;;;;;5014614;28;20029;-70
2023/05/28 08:07:27;;;;;;;10.75;3.60;;;19.50;99.90;;;;;;5014326;28;20478;-71
2023/05/28 08:09:53;;;;;;;14.90;4.15;;;19.70;99.90;;;;;;5027130;28;20108;-71
2023/05/28 08:12:19;;;;;;;12.57;3.90;;;20.00;99.90;;;;;;5030207;28;20095;-70
2023/05/28 08:14:44;;;;;;;7.38;3.30;;;19.90;99.90;;;;;;5013188;28;20026;-71
2023/05/28 08:17:10;;;;;;;12.57;4.05;;;19.80;99.90;;;;;;5011103;28;20038;-73
2023/05/28 08:19:36;;;;;;;13.18;3.65;;;20.00;99.90;;;;;;5013386;28;20517;-71
2023/05/28 08:22:01;;;;;;;13.77;4.97;;;19.90;99.90;;;;;;5013559;28;20546;-71
2023/05/28 08:24:27;;;;;;;10.50;3.75;;;19.90;99.90;;;;;;5008824;28;20026;-73
2023/05/28 08:26:52;;;;;;;12.02;3.85;;;19.90;99.90;;;;;;5029413;28;20088;-71
2023/05/28 08:29:18;;;;;;;7.25;3.25;;;20.10;99.90;;;;;;5009883;28;20026;-71
2023/05/28 08:31:44;;;;;;;10.50;3.30;;;20.20;99.90;;;;;;5011177;28;20030;-71
2023/05/28 08:34:10;;;;;;;10.95;3.25;;;20.30;99.90;;;;;;5013924;28;20038;-71
2023/05/28 08:36:36;;;;;;;10.65;3.90;;;20.80;99.90;;;;;;5012022;28;20052;-71
2023/05/28 08:39:02;;;;;;;12.57;3.35;;;21.20;99.90;;;;;;5013855;28;20026;-72
2023/05/28 08:41:27;;;;;;;7.97;2.83;;;21.20;99.90;;;;;;5013735;28;20029;-72
2023/05/28 08:43:53;;;;;;;11.02;3.00;;;21.20;99.90;;;;;;5042447;28;20049;-71
2023/05/28 08:46:19;;;;;;;13.90;3.22;;;21.50;99.90;;;;;;5033458;28;20057;-71
2023/05/28 08:48:46;;;;;;;9.93;2.50;;;21.50;99.90;;;;;;5027323;28;20393;-71
2023/05/28 08:51:12;;;;;;;;;;;21.70;99.90;;;;;;5014031;28;20437;-71
2023/05/28 08:53:46;;;;;;;6.45;2.75;;;21.60;99.90;;;;;;5006940;28;19910;-70
2023/05/28 08:56:12;;;;;;;8.35;3.65;;;21.30;99.90;;;;;;5013561;28;20051;-72
2023/05/28 08:58:38;;;;;;;8.45;3.20;;;21.10;99.90;;;;;;5013574;28;20568;-72
2023/05/28 09:01:08;;;;;;;7.72;3.97;;;20.80;99.90;;;;;;5029094;28;20029;-71
2023/05/28 09:03:35;;;;;;;13.98;3.30;;;20.80;99.90;;;;;;5016221;28;20744;-72
2023/05/28 09:06:01;;;;;;;11.27;3.53;;;21.00;99.90;;;;;;5011766;28;20129;-72
2023/05/28 09:08:27;;;;;;;5.60;2.95;;;20.80;99.90;;;;;;5013728;28;20264;-73
2023/05/28 09:10:56;;;;;;;7.20;2.72;;;20.60;99.90;;;;;;5012730;28;20101;-71
2023/05/28 09:13:21;;;;;;;8.75;2.92;;;20.50;99.90;;;;;;5013309;28;20399;-72
2023/05/28 09:15:51;;;;;;;13.32;2.92;;;20.50;99.90;;;;;;5013261;28;20022;-71
2023/05/28 09:18:20;;;;;;;11.77;3.53;;;20.40;99.90;;;;;;5030412;28;20084;-72
2023/05/28 09:20:50;;;;;;;7.72;3.05;;;20.70;99.90;;;;;;5048212;28;20391;-72
2023/05/28 09:23:17;;;;;;;8.90;2.95;;;20.80;99.90;;;;;;5032951;28;20028;-72
2023/05/28 09:25:44;;;;;;;13.27;4.25;;;21.00;99.90;;;;;;5023281;28;20105;-71
2023/05/28 09:28:14;;;;;;;13.23;3.78;;;20.90;99.90;;;;;;5009422;28;20033;-71
2023/05/28 09:30:41;;;;;;;8.73;3.13;;;20.80;99.90;;;;;;5006278;28;20037;-72
2023/05/28 09:33:08;;;;;;;6.47;2.97;;;20.80;99.90;;;;;;4993937;28;20026;-71
2023/05/28 09:35:34;;;;;;;;;;;20.70;99.90;;;;;;4994001;28;20026;-72
2023/05/28 09:38:07;;;;;;;13.38;3.03;;;20.70;99.90;;;;;;5011255;28;19921;-71
2023/05/28 09:40:41;;;;;;;10.52;3.40;;;20.70;99.90;;;;;;5012121;28;20500;-74
2023/05/28 09:43:08;;;;;;;10.48;3.42;;;20.90;99.90;;;;;;5002029;28;20053;-73
2023/05/28 09:45:34;;;;;;;12.48;3.47;;;20.90;99.90;;;;;;5012278;28;20026;-72
2023/05/28 09:48:00;;;;;;;7.45;2.90;;;20.60;99.90;;;;;;5012862;28;20057;-71
2023/05/28 09:50:26;;;;;;;10.38;2.85;;;20.40;99.90;;;;;;5013321;28;20712;-70
2023/05/28 09:52:58;;;;;;;9.75;3.20;;;20.50;99.90;;;;;;5012839;28;20525;-72
2023/05/28 09:55:30;;;;;;;14.55;4.18;;;20.70;99.90;;;;;;5012925;28;20039;-71
2023/05/28 09:58:04;;;;;;;11.93;3.80;;;20.70;99.90;;;;;;5012635;28;20053;-71
2023/05/28 10:00:42;;;;;;;14.80;3.35;;;20.70;99.90;;;;;;5015791;28;20029;-71
2023/05/28 10:03:21;;;;;;;12.98;4.40;;;20.50;99.90;;;;;;5031705;28;20033;-72
2023/05/28 10:05:52;;;;;;;6.30;3.22;;;20.70;99.90;;;;;;5015378;28;20176;-71
2023/05/28 10:08:21;;;;;;;6.63;3.17;;;20.80;99.90;;;;;;5025845;28;20021;-71
2023/05/28 10:10:52;;;;;;;11.07;4.47;;;21.00;99.90;;;;;;5036319;28;20030;-70
2023/05/28 10:13:18;;;;;;;9.60;2.90;;;21.30;99.90;;;;;;5036388;28;20026;-70
2023/05/28 10:15:45;;;;;;;8.07;3.50;;;21.40;99.90;;;;;;5036183;28;20363;-70
2023/05/28 10:18:14;;;;;;;6.50;2.70;;;21.40;99.90;;;;;;5032182;28;20030;-70
2023/05/28 10:20:40;;;;;;;9.75;3.53;;;21.60;99.90;;;;;;5015124;28;20105;-71
2023/05/28 10:23:08;;;;;;;5.77;2.80;;;22.00;99.90;;;;;;5016245;28;20030;-71
2023/05/28 10:25:33;;;;;;;;;;;22.20;99.90;;;;;;5020236;28;20288;-72
2023/05/28 10:28:03;;;;;;;6.93;2.65;;;22.20;99.90;;;;;;5016257;28;20293;-72
2023/05/28 10:30:37;;;;;;;15.75;3.28;;;22.20;99.90;;;;;;5016609;28;20581;-71
2023/05/28 10:33:11;;;;;;;5.95;2.88;;;22.20;99.90;;;;;;5015192;28;20386;-72
2023/05/28 10:35:53;;;;;;;6.55;3.22;;;22.20;99.90;;;;;;5030392;28;20119;-71
2023/05/28 10:38:18;;;;;;;9.73;3.50;;;22.20;99.90;;;;;;4998826;28;20034;-71
2023/05/28 10:40:44;;;;;;;7.40;3.13;;;22.40;99.90;;;;;;5014480;28;20474;-71
2023/05/28 10:43:39;;;;;;;11.48;3.00;;;22.50;99.90;;;;;;5015480;28;20506;-71
2023/05/28 10:46:17;;;;;;;8.15;3.17;;;22.50;99.90;;;;;;4998294;28;20034;-71
2023/05/28 10:49:08;;;;;;;11.07;2.85;;;22.60;99.90;;;;;;5002349;28;20140;-70
2023/05/28 10:52:00;;;;;;;9.10;3.28;;;22.60;99.90;;;;;;5003861;28;20054;-71
2023/05/28 10:54:35;;;;;;;13.13;3.28;;;22.20;99.90;;;;;;5009459;28;20486;-70
2023/05/28 10:57:21;;;;;;;5.30;2.42;;;22.10;99.90;;;;;;5030972;28;20044;-71
2023/05/28 10:59:59;;;;;;;10.77;3.15;;;22.20;99.90;;;;;;5021337;28;20022;-71
2023/05/28 11:02:26;;;;;;;10.05;3.28;;;22.30;99.90;;;;;;5016114;28;20025;-71
2023/05/28 11:04:56;;;;;;;10.98;3.38;;;22.40;99.90;;;;;;4998427;28;20128;-72
2023/05/28 11:07:29;;;;;;;10.50;3.22;;;22.50;99.90;;;;;;5015856;28;20033;-72
2023/05/28 11:09:57;;;;;;;12.50;3.00;;;22.40;99.90;;;;;;5026560;28;20026;-72
2023/05/28 11:12:25;;;;;;;7.70;3.50;;;22.40;99.90;;;;;;5005852;28;20168;-71
2023/05/28 11:14:51;;;;;;;11.27;3.97;;;22.50;99.90;;;;;;5015417;28;20030;-71
2023/05/28 11:17:17;;;;;;;7.10;2.90;;;22.20;99.90;;;;;;5032443;28;20442;-71
2023/05/28 11:19:48;;;;;;;9.63;3.60;;;22.00;99.90;;;;;;5033585;28;20028;-71
2023/05/28 11:22:15;;;;;;;9.52;3.70;;;21.90;99.90;;;;;;5015815;28;20014;-70
2023/05/28 11:25:08;;;;;;;7.15;3.42;;;22.00;99.90;;;;;;5015202;28;20029;-70
2023/05/28 11:27:35;;;;;;;9.52;4.32;;;22.20;99.90;;;;;;5001326;28;20038;-71
2023/05/28 11:30:06;;;;;;;11.85;2.67;;;22.30;99.90;;;;;;4995569;28;20022;-70
2023/05/28 11:32:33;;;;;;;8.43;2.72;;;22.40;99.90;;;;;;5009438;28;20021;-71
2023/05/28 11:34:59;;;;;;;9.70;3.10;;;22.60;99.90;;;;;;5013411;28;20084;-72
2023/05/28 11:37:35;;;;;;;10.32;3.25;;;22.80;99.90;;;;;;5014642;28;20502;-70
2023/05/28 11:40:05;;;;;;;11.05;3.92;;;22.60;99.90;;;;;;5011163;28;20027;-71
2023/05/28 11:42:31;;;;;;;9.20;3.40;;;22.60;99.90;;;;;;5006161;28;20037;-70
2023/05/28 11:44:57;;;;;;;10.25;3.88;;;22.60;99.90;;;;;;5014386;28;20018;-71
2023/05/28 11:47:24;;;;;;;12.77;3.80;;;22.50;99.90;;;;;;5014703;28;20025;-71
2023/05/28 11:49:50;;;;;;;8.57;3.17;;;22.20;99.90;;;;;;5019936;28;20075;-71
2023/05/28 11:52:19;;;;;;;10.93;3.55;;;22.00;99.90;;;;;;5034494;28;20033;-71
2023/05/28 11:54:47;;;;;;;8.05;3.63;;;22.00;99.90;;;;;;5014910;28;20506;-72
2023/05/28 11:57:23;;;;;;;9.00;3.63;;;21.90;99.90;;;;;;5014556;28;20038;-71
2023/05/28 12:00:15;;;;;;;9.45;3.05;;;21.90;99.90;;;;;;5014154;28;20022;-70
2023/05/28 12:02:48;;;;;;;13.93;3.47;;;21.90;99.90;;;;;;4994927;28;20030;-71
2023/05/28 12:05:15;;;;;;;9.85;3.25;;;22.00;99.90;;;;;;4994793;28;20022;-72
2023/05/28 12:07:45;;;;;;;;;;;22.10;99.90;;;;;;5020844;28;20033;-71
2023/05/28 12:10:13;;;;;;;6.72;3.45;;;22.40;99.90;;;;;;5015343;28;19944;-71
2023/05/28 12:12:42;;;;;;;;;;;22.50;99.90;;;;;;5013094;28;20092;-71
2023/05/28 12:15:08;;;;;;;13.20;3.10;;;22.50;99.90;;;;;;5000560;28;19909;-71
2023/05/28 12:17:39;;;;;;;11.25;3.72;;;22.60;99.90;;;;;;5006406;28;20456;-71
2023/05/28 12:20:08;;;;;;;8.90;3.05;;;22.40;99.90;;;;;;5028799;28;20026;-70
2023/05/28 12:22:34;;;;;;;15.35;3.65;;;22.30;99.90;;;;;;5007375;28;20109;-71
2023/05/28 12:25:01;;;;;;;14.75;4.22;;;22.10;99.90;;;;;;5014470;28;20108;-72
2023/05/28 12:27:26;;;;;;;9.70;2.80;;;21.80;99.90;;;;;;5012156;28;20096;-71
2023/05/28 12:29:52;;;;;;;14.50;5.18;;;21.50;99.90;;;;;;5029001;28;20498;-71
2023/05/28 12:32:19;;;;;;;8.88;3.92;;;21.30;99.90;;;;;;5012649;28;20501;-70
2023/05/28 12:34:44;;;;;;;7.90;3.53;;;21.30;99.90;;;;;;5003843;28;20029;-71
2023/05/28 12:37:10;;;;;;;9.88;4.20;;;21.30;99.90;;;;;;5013172;28;20057;-71
2023/05/28 12:39:37;;;;;;;11.50;4.30;;;21.50;99.90;;;;;;5015148;28;20500;-71
2023/05/28 12:42:03;;;;;;;8.30;3.50;;;21.70;99.90;;;;;;5012031;28;20382;-72